Terminal Aerodrome Forecast
Issued by NWS

Home | Current Version | Previous Version | Graphics & Text | Print | Product List | Glossary On
Versions: 1 2 3 4 5 6 7 8 9 10 11 12 13 14 15 16 17 18 19 20 21 22 23 24
000
FTUS43 KGRB 251600 AAA
TAFMTW
TAF AMD
KMTW 251605Z 2516/2612 29010KT P6SM SCT020 OVC040
      TEMPO 2517/2520 -SN OVC020
     FM252000 26007KT P6SM SCT045 BKN120
     FM260000 22003KT P6SM SCT100=

USA.gov is the U.S. government's official web portal to all federal, state and local government web resources and services.